Pagrindinis puslapis
METAR-TAF:

METAR-TAF

Oro uostai :

Pearland Regional Airport

Hiustonas-Pearland, Teksasas, Jungtinės Amerikos Valstijos

platuma: 29-31-16N, ilguma: 095-14-31W, Aukštis: 13 m

Dabartinis oras

Ataskaita buvo paskelbta 1 valandą ir 4 minutes, ne 05:53 UTC
Ramus vėjas
Temperatūra 22°C
Drėgmė 78%
Slėgis 1013 hPa
Matomumas: 16.1 km
Giedras dangus

METAR: KLVJ 270553Z AUTO 00000KT 10SM CLR 22/18 A2991 RMK AO2 SLP128 T02220183 10294 20222 403060206 50005 $

Laikas: 01:57 (06:57 UTC)


TAF: trūkstamas

Orai ataskaitas ir orų prognozės (METAR, TAF).

turimą stotys yra geltonos ir raudonos taškus žemėlapyje.

Perkelti pele per norėdami pamatyti stoties vardą.

Tada spustelėkite, norėdami matyti oro stebėjimo ir prognozės.

Norėdami pakeisti žemėlapį: spustelėkite ant žalios mygtukų su juodo kryžiaus žemyn,; žalią mygtuką su brūkšneliu, jei norite nutolinti; arba žalių rodyklių gretimoms žemėlapius.


METAR-TAF: